Time;durP1;ratioP1;P1;durP2;ratioP2;P2;SDS_P1;SDS_P2;PMS_P1;PMS_P2;Temp;Humidity;BMP_temperature;BMP_pressure;BME280_temperature;BME280_humidity;BME280_pressure;Samples;Min_cycle;Max_cycle;Signal;HPM_P1;HPM_P2
2021/09/12 04:45:55;;;;;;;;;;;;;;;;;;;;;
2021/09/12 04:53:35;;;;;;;;;;;;;;;;;;;;;
2021/09/12 04:57:27;;;;;;;;;;;;;;;;;;;;;
2021/09/12 05:00:57;;;;;;;18.67;13.30;;;10.30;99.90;;;;;;5879230;24;20102;-90
2021/09/12 05:08:29;;;;;;;;;;;;;;;;;;;;;
2021/09/12 05:12:02;;;;;;;24.83;13.65;;;10.10;99.90;;;;;;5881106;24;20153;-93
2021/09/12 05:15:04;;;;;;;25.58;15.32;;;10.20;99.90;;;;;;5880178;24;20106;-91
2021/09/12 05:18:55;;;;;;;;;;;;;;;;;;;;;
2021/09/12 05:22:20;;;;;;;31.83;15.65;;;10.30;99.90;;;;;;5961122;24;20028;-90
2021/09/12 05:25:12;;;;;;;24.38;15.75;;;10.30;99.90;;;;;;5944622;24;20127;-90
2021/09/12 05:28:08;;;;;;;25.42;16.60;;;10.40;99.90;;;;;;5937038;24;20367;-90
2021/09/12 05:31:16;;;;;;;27.85;17.23;;;10.40;99.90;;;;;;6087674;23;20418;-90
2021/09/12 05:34:39;;;;;;;29.13;18.85;;;10.50;99.90;;;;;;6103880;23;20038;-92
2021/09/12 05:38:02;;;;;;;;;;;;;;;;;;;;;
2021/09/12 05:41:05;;;;;;;26.05;17.08;;;10.80;99.90;;;;;;6189969;23;20094;-91
2021/09/12 05:44:41;;;;;;;26.33;17.73;;;10.80;99.90;;;;;;6154748;23;20032;-92
2021/09/12 05:47:35;;;;;;;27.02;17.65;;;10.90;99.90;;;;;;6171581;23;20337;-92
2021/09/12 05:50:32;;;;;;;25.13;16.67;;;10.90;99.90;;;;;;6187802;23;20029;-92
2021/09/12 05:53:52;;;;;;;;;;;;;;;;;;;;;
2021/09/12 05:57:25;;;;;;;;;;;;;;;;;;;;;
2021/09/12 06:00:51;;;;;;;20.48;14.77;;;11.20;99.90;;;;;;6125692;23;20026;-92
2021/09/12 07:38:50;;;;;;;5.18;3.30;;;15.70;99.90;;;;;;6148798;22;1434233;-93
2021/09/12 07:45:55;;;;;;;;;;;;;;;;;;;;;
2021/09/12 07:49:58;;;;;;;;;;;;;;;;;;;;;
2021/09/12 07:53:32;;;;;;;6.77;4.00;;;17.40;99.90;;;;;;5995967;24;20024;-91
2021/09/12 07:56:50;;;;;;;8.57;3.92;;;17.70;99.90;;;;;;5971819;24;20032;-90
2021/09/12 08:00:00;;;;;;;5.13;4.03;;;17.80;99.90;;;;;;6071438;23;20022;-92
2021/09/12 08:02:59;;;;;;;6.72;4.15;;;18.10;99.90;;;;;;6100276;23;20380;-92
2021/09/12 08:09:59;;;;;;;;;;;;;;;;;;;;;
2021/09/12 08:13:31;;;;;;;5.57;3.20;;;20.30;99.90;;;;;;6193690;23;20025;-93
2021/09/12 08:16:21;;;;;;;5.63;2.70;;;21.30;99.90;;;;;;6193976;23;20025;-93
2021/09/12 08:19:22;;;;;;;;;;;;;;;;;;;;;
2021/09/12 08:22:29;;;;;;;;;;;;;;;;;;;;;
2021/09/12 08:25:29;;;;;;;;;;;23.00;99.90;;;;;;6193983;23;20037;-91
2021/09/12 08:28:21;;;;;;;5.35;2.35;;;24.00;97.00;;;;;;6193273;23;20035;-93
2021/09/12 08:31:38;;;;;;;;;;;;;;;;;;;;;
2021/09/12 08:39:37;;;;;;;;;;;;;;;;;;;;;
2021/09/12 08:43:42;;;;;;;;;;;;;;;;;;;;;
2021/09/12 08:46:56;;;;;;;2.92;1.70;;;27.10;67.70;;;;;;6107406;23;20118;-92
2021/09/12 08:49:53;;;;;;;2.33;1.63;;;26.90;72.50;;;;;;6097660;23;20026;-92
2021/09/12 08:52:50;;;;;;;4.15;1.77;;;26.90;71.00;;;;;;6096295;23;20093;-92
2021/09/12 08:56:15;;;;;;;3.65;2.00;;;27.10;67.00;;;;;;6080228;23;20026;-92
2021/09/12 08:59:27;;;;;;;5.18;2.38;;;27.60;66.60;;;;;;6095109;23;20728;-92
2021/09/12 09:02:32;;;;;;;3.65;2.00;;;27.70;66.20;;;;;;6009042;23;20350;-91
2021/09/12 09:06:06;;;;;;;;;;;;;;;;;;;;;
2021/09/12 09:09:22;;;;;;;;;;;;;;;;;;;;;
2021/09/12 09:12:45;;;;;;;1.95;1.45;;;27.70;60.80;;;;;;6069186;23;20026;-92
2021/09/12 09:15:48;;;;;;;3.47;1.40;;;28.30;56.30;;;;;;6068091;23;20026;-92
2021/09/12 09:22:48;;;;;;;3.45;1.55;;;29.30;58.20;;;;;;6068181;23;20043;-93
2021/09/12 09:25:47;;;;;;;3.13;1.27;;;29.40;57.00;;;;;;6068215;23;20110;-91
2021/09/12 09:28:55;;;;;;;2.13;1.60;;;29.50;57.00;;;;;;6049059;23;20438;-92
2021/09/12 09:32:12;;;;;;;1.65;1.02;;;28.80;57.50;;;;;;6067149;23;20030;-92
2021/09/12 09:35:11;;;;;;;1.70;1.00;;;29.30;57.10;;;;;;6188134;23;20029;-92
2021/09/12 09:37:59;;;;;;;2.35;1.17;;;28.90;55.10;;;;;;6145968;23;20025;-91
2021/09/12 09:41:07;;;;;;;2.17;1.48;;;28.30;57.20;;;;;;6185854;23;20083;-92
2021/09/12 09:44:12;;;;;;;1.77;1.27;;;27.80;57.00;;;;;;6187384;23;20037;-91
2021/09/12 09:47:13;;;;;;;2.55;1.38;;;28.30;57.50;;;;;;6165529;23;20083;-92
2021/09/12 09:50:31;;;;;;;1.55;1.30;;;28.20;58.10;;;;;;6185144;23;20120;-93
2021/09/12 09:54:24;;;;;;;;;;;;;;;;;;;;;
2021/09/12 09:57:47;;;;;;;1.70;1.15;;;29.40;56.70;;;;;;6187822;23;20028;-92
2021/09/12 10:00:38;;;;;;;1.27;1.15;;;30.50;52.80;;;;;;6188054;23;20069;-92
2021/09/12 10:03:35;;;;;;;1.88;1.27;;;30.90;52.00;;;;;;6187107;23;20049;-93
2021/09/12 10:06:31;;;;;;;2.10;1.10;;;30.20;51.30;;;;;;6185172;23;20036;-92
2021/09/12 10:09:19;;;;;;;2.78;1.50;;;29.90;54.60;;;;;;6187862;23;20025;-92
2021/09/12 10:12:15;;;;;;;3.97;1.55;;;29.50;54.10;;;;;;6167633;23;20032;-92
2021/09/12 10:15:09;;;;;;;3.95;1.52;;;30.30;54.60;;;;;;6166638;23;20076;-92
2021/09/12 10:18:14;;;;;;;2.97;1.40;;;30.50;52.70;;;;;;6163671;23;20031;-92
2021/09/12 10:21:33;;;;;;;1.35;1.08;;;30.40;52.10;;;;;;6165885;23;20029;-94
2021/09/12 10:32:46;;;;;;;3.53;2.10;;;32.70;46.40;;;;;;6055270;23;20038;-92
2021/09/12 10:36:07;;;;;;;3.17;1.52;;;33.00;45.90;;;;;;6068343;23;20078;-92
2021/09/12 10:39:35;;;;;;;2.40;2.20;;;33.00;45.50;;;;;;6068526;23;20086;-91
2021/09/12 10:43:04;;;;;;;4.20;3.55;;;32.90;44.80;;;;;;6053955;23;20027;-92
2021/09/12 10:46:01;;;;;;;2.63;1.23;;;33.20;46.10;;;;;;6102051;23;20053;-93
2021/09/12 10:48:54;;;;;;;1.63;1.27;;;32.20;46.20;;;;;;6186617;23;20021;-91
2021/09/12 10:51:56;;;;;;;1.52;1.38;;;31.80;47.30;;;;;;6187884;23;20053;-93
2021/09/12 10:55:12;;;;;;;3.55;1.40;;;31.80;45.40;;;;;;6171299;23;20021;-91
2021/09/12 10:58:01;;;;;;;2.67;1.45;;;32.00;46.80;;;;;;6203358;23;20036;-92
2021/09/12 11:00:49;;;;;;;1.65;1.27;;;31.80;47.10;;;;;;6197819;23;20092;-92
2021/09/12 11:03:58;;;;;;;3.55;1.45;;;32.60;44.50;;;;;;6177670;23;20048;-92
2021/09/12 11:07:19;;;;;;;2.55;1.50;;;31.80;47.20;;;;;;6177953;23;20091;-92
2021/09/12 11:10:08;;;;;;;1.65;1.10;;;31.60;47.30;;;;;;6201079;23;20155;-91
2021/09/12 11:13:29;;;;;;;2.38;1.73;;;31.80;46.00;;;;;;6186123;23;20013;-92
2021/09/12 11:16:39;;;;;;;1.95;1.38;;;31.60;48.40;;;;;;6184858;23;20032;-92
2021/09/12 11:19:59;;;;;;;1.38;1.27;;;32.60;45.70;;;;;;6130000;23;20014;-92
2021/09/12 11:23:40;;;;;;;;;;;;;;;;;;;;;
2021/09/12 11:27:31;;;;;;;;;;;;;;;;;;;;;
2021/09/12 11:30:34;;;;;;;1.23;1.17;;;35.20;43.50;;;;;;6029161;23;20031;-92
2021/09/12 11:34:33;;;;;;;2.05;1.13;;;34.30;45.30;;;;;;6038454;23;20019;-92
2021/09/12 11:37:40;;;;;;;1.30;0.90;;;35.40;40.10;;;;;;6037815;23;20046;-92
2021/09/12 11:40:33;;;;;;;1.05;0.90;;;36.90;38.10;;;;;;6018635;23;20155;-93
2021/09/12 11:43:36;;;;;;;1.43;1.30;;;36.50;37.70;;;;;;6081562;23;20145;-92
2021/09/12 11:46:40;;;;;;;1.75;1.20;;;35.50;40.90;;;;;;6135408;23;20265;-92
2021/09/12 11:49:28;;;;;;;3.83;1.27;;;35.70;38.50;;;;;;6142232;23;20424;-92
2021/09/12 11:52:58;;;;;;;2.45;1.25;;;34.90;40.60;;;;;;6180148;23;20031;-92
2021/09/12 11:56:02;;;;;;;2.20;1.35;;;34.30;41.20;;;;;;6203767;23;20044;-93
2021/09/12 11:59:15;;;;;;;3.50;1.20;;;34.30;39.60;;;;;;6192003;23;20040;-91
2021/09/12 12:02:26;;;;;;;1.73;1.10;;;34.10;44.50;;;;;;6209302;23;20021;-90
2021/09/12 12:05:13;;;;;;;2.42;1.27;;;34.40;39.70;;;;;;6180692;23;20164;-90
2021/09/12 12:08:24;;;;;;;2.83;1.30;;;32.50;42.90;;;;;;6184350;23;20021;-91
2021/09/12 12:11:11;;;;;;;2.50;1.67;;;30.20;46.30;;;;;;6186426;23;20021;-89
2021/09/12 12:13:59;;;;;;;3.10;1.90;;;28.40;49.90;;;;;;6184541;23;20036;-90
2021/09/12 12:16:50;;;;;;;3.95;1.80;;;27.00;52.50;;;;;;6184306;23;20043;-91
2021/09/12 12:19:41;;;;;;;5.38;1.58;;;26.20;54.20;;;;;;6198162;23;20040;-88
2021/09/12 12:22:36;;;;;;;2.53;1.60;;;25.60;58.70;;;;;;6197732;23;20025;-90
2021/09/12 12:25:29;;;;;;;2.30;1.60;;;25.40;58.10;;;;;;6181693;23;20021;-91
2021/09/12 12:28:26;;;;;;;1.85;1.30;;;26.80;58.40;;;;;;6176872;23;20051;-92
2021/09/12 12:31:17;;;;;;;2.85;1.25;;;28.60;53.50;;;;;;6172764;23;20059;-91
2021/09/12 12:34:06;;;;;;;3.50;1.20;;;28.40;53.90;;;;;;6167018;23;20057;-90
2021/09/12 12:55:34;;;;;;;2.97;1.67;;;26.40;58.60;;;;;;6182293;23;20039;-90
2021/09/12 12:58:23;;;;;;;1.65;1.55;;;25.20;61.50;;;;;;6184666;23;20333;-90
2021/09/12 13:01:13;;;;;;;2.03;1.33;;;24.50;63.00;;;;;;6165349;23;20156;-88
2021/09/12 13:04:01;;;;;;;2.50;1.90;;;24.10;63.50;;;;;;6184063;23;20036;-90
2021/09/12 13:06:50;;;;;;;2.15;1.80;;;23.80;65.90;;;;;;6164352;23;20049;-88
2021/09/12 13:09:41;;;;;;;4.63;1.93;;;23.60;66.40;;;;;;6184547;23;20028;-91
2021/09/12 13:12:29;;;;;;;6.43;2.17;;;23.50;65.90;;;;;;6164404;23;20021;-91
2021/09/12 13:15:21;;;;;;;1.55;1.45;;;23.60;65.90;;;;;;6164002;23;20108;-90
2021/09/12 13:18:16;;;;;;;4.25;1.58;;;23.80;66.70;;;;;;6184377;23;20044;-92
2021/09/12 13:21:04;;;;;;;3.33;1.50;;;25.80;64.20;;;;;;6166018;23;20104;-90
2021/09/12 13:23:54;;;;;;;1.83;1.30;;;27.90;56.90;;;;;;6182421;23;20041;-91
2021/09/12 13:26:43;;;;;;;1.30;1.20;;;29.30;52.70;;;;;;6186032;23;20107;-90
2021/09/12 13:29:34;;;;;;;2.42;1.40;;;29.60;52.60;;;;;;6186535;23;20298;-92
2021/09/12 13:32:44;;;;;;;1.10;1.00;;;30.40;51.10;;;;;;6166881;23;20087;-92
2021/09/12 13:39:41;;;;;;;;;;;;;;;;;;;;;
2021/09/12 13:43:32;;;;;;;;;;;;;;;;;;;;;
2021/09/12 13:51:40;;;;;;;1.50;1.17;;;30.90;47.50;;;;;;5933847;24;20036;-92
2021/09/12 13:55:36;;;;;;;;;;;;;;;;;;;;;
2021/09/12 13:58:56;;;;;;;1.08;0.90;;;33.80;40.90;;;;;;5793618;24;20035;-91
2021/09/12 14:02:20;;;;;;;2.30;0.73;;;34.20;37.70;;;;;;5791534;24;20027;-92
2021/09/12 14:05:30;;;;;;;1.13;0.65;;;33.30;42.50;;;;;;5843102;24;20512;-93
2021/09/12 14:08:41;;;;;;;1.42;0.80;;;33.40;40.90;;;;;;5867498;24;20086;-92
2021/09/12 14:11:36;;;;;;;6.30;1.13;;;32.50;40.70;;;;;;5931757;23;20344;-93
2021/09/12 14:14:36;;;;;;;1.20;0.80;;;30.30;47.50;;;;;;6049666;23;20037;-92
2021/09/12 14:17:25;;;;;;;1.33;1.00;;;29.20;49.30;;;;;;6045629;23;20026;-92
2021/09/12 14:20:14;;;;;;;2.28;1.30;;;29.50;49.00;;;;;;6064514;23;20030;-91
2021/09/12 14:23:04;;;;;;;2.28;0.90;;;30.70;46.20;;;;;;6064115;23;20109;-90
2021/09/12 14:25:59;;;;;;;1.00;0.90;;;31.30;44.50;;;;;;6048075;23;20050;-91
2021/09/12 14:28:47;;;;;;;6.68;1.17;;;32.50;44.00;;;;;;6097645;23;20036;-92
2021/09/12 14:31:35;;;;;;;1.20;0.77;;;33.40;42.90;;;;;;6160311;23;20025;-91
2021/09/12 14:34:25;;;;;;;1.77;1.00;;;34.50;40.40;;;;;;6164027;23;20064;-93
2021/09/12 14:37:13;;;;;;;1.73;1.20;;;34.60;41.70;;;;;;6183563;23;20051;-90
2021/09/12 14:40:02;;;;;;;1.27;1.10;;;34.10;42.20;;;;;;6162820;23;20037;-90
2021/09/12 14:42:50;;;;;;;1.35;0.95;;;34.20;41.30;;;;;;6122934;23;20050;-91
2021/09/12 14:45:39;;;;;;;1.85;0.80;;;33.90;42.10;;;;;;6184403;23;20029;-92
2021/09/12 14:48:27;;;;;;;1.42;1.10;;;33.70;43.40;;;;;;6183299;23;20029;-92
2021/09/12 14:51:15;;;;;;;1.30;1.20;;;33.30;42.50;;;;;;6185393;23;20025;-91
2021/09/12 14:54:02;;;;;;;1.88;0.77;;;33.00;42.80;;;;;;6140129;23;20037;-90
2021/09/12 14:56:53;;;;;;;2.05;1.20;;;33.00;43.20;;;;;;6162400;23;20029;-94
2021/09/12 14:59:41;;;;;;;4.25;1.40;;;32.60;44.80;;;;;;6162031;23;20087;-89
2021/09/12 15:02:28;;;;;;;1.70;1.00;;;32.10;44.70;;;;;;6183916;23;20035;-91
2021/09/12 15:05:16;;;;;;;1.42;1.15;;;31.80;45.50;;;;;;6181732;23;20412;-92
2021/09/12 15:08:08;;;;;;;1.50;1.10;;;31.90;45.70;;;;;;6186386;23;20021;-91
2021/09/12 15:10:58;;;;;;;1.30;1.20;;;32.00;46.00;;;;;;6185660;23;20095;-92
2021/09/12 15:13:45;;;;;;;2.30;1.52;;;32.00;46.90;;;;;;6183628;23;20021;-90
2021/09/12 15:16:33;;;;;;;1.83;1.20;;;31.80;46.60;;;;;;6163651;23;20025;-92
2021/09/12 15:19:20;;;;;;;2.63;1.08;;;31.30;46.00;;;;;;6183778;23;20025;-91
2021/09/12 15:26:23;;;;;;;;;;;;;;;;;;;;;
2021/09/12 15:29:44;;;;;;;2.08;1.13;;;30.60;46.50;;;;;;6170098;23;20033;-90
2021/09/12 15:32:45;;;;;;;1.52;1.20;;;30.50;47.80;;;;;;6164694;23;20025;-91
2021/09/12 15:35:45;;;;;;;4.57;1.30;;;30.40;48.30;;;;;;6163793;23;20025;-92
2021/09/12 15:39:01;;;;;;;2.35;1.42;;;30.30;48.30;;;;;;6162668;23;20281;-91
2021/09/12 15:41:52;;;;;;;3.15;1.50;;;29.90;49.60;;;;;;6138274;23;20025;-92
2021/09/12 15:44:40;;;;;;;2.53;1.40;;;29.80;48.70;;;;;;6131721;23;20029;-92
2021/09/12 15:47:34;;;;;;;1.58;1.48;;;29.70;48.40;;;;;;6155103;23;20080;-91
2021/09/12 15:50:24;;;;;;;1.58;1.40;;;29.40;49.70;;;;;;6158392;23;20025;-92
2021/09/12 15:53:19;;;;;;;3.33;1.95;;;29.10;51.40;;;;;;6162154;23;20035;-91
2021/09/12 15:56:07;;;;;;;3.83;2.10;;;28.80;51.40;;;;;;6149112;23;20030;-90
2021/09/12 15:59:19;;;;;;;3.75;2.00;;;28.60;51.00;;;;;;6142859;23;20033;-91
2021/09/12 16:02:51;;;;;;;4.32;1.95;;;28.00;52.00;;;;;;6157033;23;20033;-91
2021/09/12 16:05:51;;;;;;;4.70;1.90;;;27.90;52.70;;;;;;6149821;23;20037;-91
2021/09/12 16:08:39;;;;;;;2.42;1.75;;;27.70;54.10;;;;;;6133969;23;20077;-91
2021/09/12 16:11:30;;;;;;;2.60;1.88;;;27.50;54.10;;;;;;6148812;23;20044;-90
2021/09/12 16:14:25;;;;;;;1.95;1.63;;;26.90;55.70;;;;;;6120162;23;20029;-91
2021/09/12 16:17:12;;;;;;;3.35;1.63;;;26.70;55.80;;;;;;6158116;23;20088;-92
2021/09/12 16:20:02;;;;;;;2.78;1.90;;;26.40;57.10;;;;;;6136421;23;20104;-92
2021/09/12 16:22:51;;;;;;;4.35;2.22;;;25.90;56.20;;;;;;6157274;23;20037;-91
2021/09/12 16:25:39;;;;;;;2.63;1.73;;;25.30;58.60;;;;;;6157144;23;20037;-90
2021/09/12 16:28:29;;;;;;;4.95;1.92;;;24.40;61.60;;;;;;6154791;23;20077;-91
2021/09/12 16:31:16;;;;;;;2.55;1.92;;;23.60;64.20;;;;;;6134574;23;20026;-91
2021/09/12 16:34:06;;;;;;;7.00;2.22;;;23.00;66.50;;;;;;6158560;23;20410;-91
2021/09/12 16:37:11;;;;;;;3.45;2.25;;;22.50;66.80;;;;;;6095911;23;20030;-91
2021/09/12 16:39:58;;;;;;;5.47;2.75;;;22.20;70.00;;;;;;6076577;23;20041;-91
2021/09/12 16:42:48;;;;;;;2.50;2.30;;;21.90;73.30;;;;;;6076834;23;20030;-91
2021/09/12 16:48:47;;;;;;;2.00;1.80;;;21.40;76.60;;;;;;6096754;23;20022;-91
2021/09/12 16:51:37;;;;;;;2.38;2.10;;;21.10;78.90;;;;;;6075607;23;20116;-90
2021/09/12 16:54:28;;;;;;;5.05;2.10;;;20.90;80.20;;;;;;6096157;23;20031;-91
2021/09/12 16:57:17;;;;;;;2.95;2.40;;;20.70;82.00;;;;;;6095617;23;20422;-89
2021/09/12 17:00:09;;;;;;;4.30;2.80;;;20.50;84.00;;;;;;6097599;23;20037;-91
2021/09/12 17:03:24;;;;;;;5.72;3.08;;;20.30;85.10;;;;;;6076997;23;20026;-90
2021/09/12 17:06:12;;;;;;;5.80;2.78;;;20.10;86.80;;;;;;6096093;23;20030;-90
2021/09/12 17:09:00;;;;;;;3.22;2.85;;;20.00;89.80;;;;;;6150484;23;20533;-92
2021/09/12 17:12:21;;;;;;;4.00;2.50;;;19.80;92.30;;;;;;6138322;23;20092;-90
2021/09/12 17:15:23;;;;;;;3.95;2.90;;;19.70;94.40;;;;;;6138364;23;20032;-91
2021/09/12 17:18:18;;;;;;;4.28;2.50;;;19.60;95.50;;;;;;6155177;23;20052;-92
2021/09/12 17:21:25;;;;;;;4.40;3.05;;;19.50;96.80;;;;;;6156048;23;20124;-90
2021/09/12 17:24:12;;;;;;;2.85;2.55;;;19.40;99.80;;;;;;6113933;23;20036;-92
2021/09/12 17:27:02;;;;;;;2.90;2.28;;;19.20;99.90;;;;;;6134763;23;20123;-91
2021/09/12 17:29:50;;;;;;;2.85;2.42;;;19.00;99.90;;;;;;6134970;23;20124;-90
2021/09/12 17:32:41;;;;;;;4.47;2.53;;;18.70;99.90;;;;;;6097925;23;20021;-90
2021/09/12 17:39:18;;;;;;;3.90;2.38;;;18.40;99.90;;;;;;6142290;23;20087;-92
2021/09/12 17:42:09;;;;;;;3.03;2.30;;;18.30;99.90;;;;;;6186341;23;20084;-89
2021/09/12 17:45:16;;;;;;;4.65;2.80;;;18.10;99.90;;;;;;6189678;23;20054;-92
2021/09/12 17:48:09;;;;;;;2.97;2.42;;;18.00;99.90;;;;;;6181806;23;20081;-91
2021/09/12 17:50:57;;;;;;;3.08;2.50;;;17.80;99.90;;;;;;6178229;23;20021;-89
2021/09/12 17:53:52;;;;;;;2.58;2.38;;;17.70;99.90;;;;;;6185337;23;20021;-91
2021/09/12 17:56:43;;;;;;;3.42;2.47;;;17.50;99.90;;;;;;6188229;23;20029;-93
2021/09/12 17:59:39;;;;;;;3.53;2.58;;;17.40;99.90;;;;;;6210924;23;20073;-91
2021/09/12 18:02:29;;;;;;;3.13;2.72;;;17.40;99.90;;;;;;6169381;23;20032;-90
2021/09/12 18:09:37;;;;;;;4.38;2.88;;;17.30;99.90;;;;;;6163027;23;20029;-89
2021/09/12 18:12:25;;;;;;;2.90;2.60;;;17.30;99.90;;;;;;6206800;23;20009;-91
2021/09/12 18:15:15;;;;;;;3.65;3.00;;;17.10;99.90;;;;;;6195324;23;20021;-90
2021/09/12 18:18:03;;;;;;;4.82;3.05;;;16.90;99.90;;;;;;6132304;23;20120;-89
2021/09/12 18:20:52;;;;;;;4.75;3.10;;;16.80;99.90;;;;;;6191607;23;20069;-90
2021/09/12 18:23:39;;;;;;;4.20;3.03;;;16.70;99.90;;;;;;6166524;23;20051;-91
2021/09/12 18:26:27;;;;;;;7.88;3.00;;;16.60;99.90;;;;;;6146594;23;20029;-89
2021/09/12 18:29:14;;;;;;;3.00;2.70;;;16.50;99.90;;;;;;6165911;23;20028;-90
2021/09/12 18:32:06;;;;;;;3.50;2.92;;;16.50;99.90;;;;;;6167223;23;20021;-92
2021/09/12 18:34:53;;;;;;;3.40;3.10;;;16.40;99.90;;;;;;6143667;23;20324;-90
2021/09/12 18:37:41;;;;;;;3.45;2.95;;;16.40;99.90;;;;;;6164627;23;20040;-91
2021/09/12 18:40:28;;;;;;;7.25;3.30;;;16.30;99.90;;;;;;6164004;23;20049;-90
2021/09/12 18:43:19;;;;;;;3.60;3.08;;;16.30;99.90;;;;;;6184290;23;20033;-86
2021/09/12 18:46:06;;;;;;;5.70;3.03;;;16.30;99.90;;;;;;6192867;23;20091;-87
2021/09/12 18:48:56;;;;;;;3.80;2.83;;;16.20;99.90;;;;;;6193143;23;20751;-88
2021/09/12 18:51:45;;;;;;;4.43;3.13;;;16.20;99.90;;;;;;6191645;23;20317;-90
2021/09/12 18:54:33;;;;;;;2.78;2.50;;;16.10;99.90;;;;;;6183411;23;20032;-88
2021/09/12 18:57:20;;;;;;;3.72;3.22;;;16.10;99.90;;;;;;6161036;23;20372;-91
2021/09/12 19:00:09;;;;;;;3.58;3.28;;;16.10;99.90;;;;;;6182804;23;20083;-90
2021/09/12 19:02:56;;;;;;;4.40;3.53;;;16.00;99.90;;;;;;6183064;23;20021;-90
2021/09/12 19:05:45;;;;;;;6.72;4.30;;;15.90;99.90;;;;;;6181961;23;20120;-88
2021/09/12 19:08:32;;;;;;;6.97;4.15;;;15.90;99.90;;;;;;6142675;23;20285;-87
2021/09/12 19:11:21;;;;;;;6.63;4.00;;;15.80;99.90;;;;;;6184413;23;20383;-87
2021/09/12 19:14:10;;;;;;;5.32;4.13;;;15.70;99.90;;;;;;6183252;23;20025;-90
2021/09/12 19:16:58;;;;;;;5.20;4.30;;;15.60;99.90;;;;;;6185228;23;20108;-89
2021/09/12 19:19:46;;;;;;;7.30;4.63;;;15.60;99.90;;;;;;6185448;23;20036;-89
2021/09/12 19:22:33;;;;;;;6.40;4.10;;;15.50;99.90;;;;;;6183312;23;20053;-90
2021/09/12 19:25:21;;;;;;;6.63;4.20;;;15.50;99.90;;;;;;6162866;23;20036;-90
2021/09/12 19:28:08;;;;;;;4.72;4.15;;;15.40;99.90;;;;;;6163454;23;20374;-89
2021/09/12 19:30:55;;;;;;;6.30;4.10;;;15.40;99.90;;;;;;6164665;23;20029;-89
2021/09/12 19:33:43;;;;;;;5.15;4.15;;;15.40;99.90;;;;;;6185159;23;20046;-88
2021/09/12 19:36:31;;;;;;;6.10;4.65;;;15.40;99.90;;;;;;6184492;23;20083;-89
2021/09/12 19:39:25;;;;;;;5.65;4.78;;;15.50;99.90;;;;;;6163902;23;20029;-93
2021/09/12 19:42:13;;;;;;;5.97;5.20;;;15.40;99.90;;;;;;6184695;23;20133;-86
2021/09/12 19:45:03;;;;;;;5.85;4.53;;;15.40;99.90;;;;;;6184718;23;20033;-91
2021/09/12 19:47:51;;;;;;;7.80;5.43;;;15.30;99.90;;;;;;6182668;23;20025;-87
2021/09/12 19:50:44;;;;;;;6.97;5.45;;;15.20;99.90;;;;;;6161629;23;20025;-91
2021/09/12 19:53:31;;;;;;;5.97;4.93;;;15.10;99.90;;;;;;6162150;23;20052;-89
2021/09/12 19:56:19;;;;;;;6.47;5.05;;;15.10;99.90;;;;;;6185875;23;20297;-88
2021/09/12 19:59:09;;;;;;;7.88;4.63;;;15.10;99.90;;;;;;6182698;23;20085;-90
2021/09/12 20:01:59;;;;;;;9.20;4.70;;;15.10;99.90;;;;;;6163821;23;20024;-90
2021/09/12 20:04:46;;;;;;;5.50;4.55;;;15.10;99.90;;;;;;6166355;23;20029;-88
2021/09/12 20:07:34;;;;;;;4.82;4.30;;;15.20;99.90;;;;;;6182987;23;20029;-88
2021/09/12 20:10:22;;;;;;;9.05;4.90;;;15.20;99.90;;;;;;6184289;23;20301;-89
2021/09/12 20:13:11;;;;;;;8.75;5.25;;;15.20;99.90;;;;;;6165255;23;20021;-89
2021/09/12 20:15:59;;;;;;;8.77;6.05;;;15.20;99.90;;;;;;6143065;23;20025;-91
2021/09/12 20:18:47;;;;;;;7.85;5.40;;;15.10;99.90;;;;;;6185308;23;20111;-89
2021/09/12 20:21:35;;;;;;;8.20;6.55;;;15.10;99.90;;;;;;6183768;23;20029;-89
2021/09/12 20:24:23;;;;;;;8.73;6.85;;;15.10;99.90;;;;;;6183242;23;20037;-89
2021/09/12 20:27:10;;;;;;;9.82;7.22;;;15.00;99.90;;;;;;6166106;23;20072;-88
2021/09/12 20:29:58;;;;;;;9.10;7.00;;;15.00;99.90;;;;;;6195633;23;20138;-89
2021/09/12 20:32:47;;;;;;;11.75;8.45;;;14.90;99.90;;;;;;6201711;23;20082;-89
2021/09/12 20:35:35;;;;;;;13.40;7.80;;;14.80;99.90;;;;;;6203624;23;20021;-90
2021/09/12 20:38:23;;;;;;;9.32;7.63;;;14.80;99.90;;;;;;6204908;23;20060;-89
2021/09/12 20:41:10;;;;;;;11.52;7.38;;;14.70;99.90;;;;;;6162127;23;20052;-90
2021/09/12 20:43:58;;;;;;;14.07;10.02;;;14.60;99.90;;;;;;6119841;23;20030;-90
2021/09/12 20:46:46;;;;;;;12.48;8.77;;;14.60;99.90;;;;;;6150614;23;20014;-91
2021/09/12 20:49:35;;;;;;;10.05;7.95;;;14.60;99.90;;;;;;6123855;23;20065;-92
2021/09/12 20:52:22;;;;;;;10.60;8.98;;;14.60;99.90;;;;;;6124454;23;20026;-92
2021/09/12 20:55:11;;;;;;;9.45;7.88;;;14.60;99.90;;;;;;6100477;23;20338;-90
2021/09/12 20:58:01;;;;;;;9.95;7.05;;;14.50;99.90;;;;;;6115449;23;20030;-92
2021/09/12 21:00:48;;;;;;;9.05;7.70;;;14.50;99.90;;;;;;6132762;23;20101;-92
2021/09/12 21:03:36;;;;;;;12.60;8.07;;;14.50;99.90;;;;;;6103853;23;20085;-91
2021/09/12 21:06:29;;;;;;;10.05;8.43;;;14.50;99.90;;;;;;6127831;23;20305;-91
2021/09/12 21:09:23;;;;;;;12.82;7.60;;;14.50;99.90;;;;;;6125717;23;20026;-91
2021/09/12 21:12:10;;;;;;;8.30;6.93;;;14.50;99.90;;;;;;6104805;23;20085;-90
2021/09/12 21:14:57;;;;;;;7.57;5.90;;;14.50;99.90;;;;;;6105141;23;20080;-90
2021/09/12 21:17:45;;;;;;;7.75;6.13;;;14.40;99.90;;;;;;6106829;23;20166;-91
2021/09/12 21:20:33;;;;;;;7.95;6.68;;;14.40;99.90;;;;;;6126069;23;20070;-90
2021/09/12 21:23:23;;;;;;;7.57;6.43;;;14.40;99.90;;;;;;6103952;23;20092;-90
2021/09/12 21:26:10;;;;;;;9.50;6.85;;;14.30;99.90;;;;;;6125687;23;20058;-91
2021/09/12 21:29:06;;;;;;;8.95;6.38;;;14.20;99.90;;;;;;6126201;23;20049;-88
2021/09/12 21:31:57;;;;;;;8.00;6.70;;;14.20;99.90;;;;;;6085972;23;20022;-90
2021/09/12 21:34:44;;;;;;;10.13;7.30;;;14.20;99.90;;;;;;6128954;23;20033;-92
2021/09/12 21:37:49;;;;;;;;;;;;;;;;;;;;;
2021/09/12 21:40:38;;;;;;;9.98;6.38;;;14.10;99.90;;;;;;6141648;23;20022;-92
2021/09/12 21:43:36;;;;;;;10.88;7.13;;;14.10;99.90;;;;;;6128781;23;20129;-90
2021/09/12 21:46:24;;;;;;;9.45;7.20;;;14.10;99.90;;;;;;6128680;23;20030;-89
2021/09/12 21:49:11;;;;;;;7.93;6.60;;;14.10;99.90;;;;;;6127283;23;20025;-91
2021/09/12 21:52:01;;;;;;;8.13;6.35;;;14.10;99.90;;;;;;6131762;23;20048;-92
2021/09/12 21:54:49;;;;;;;8.18;7.18;;;14.10;99.90;;;;;;6137291;23;20049;-89
2021/09/12 21:57:40;;;;;;;9.10;6.57;;;14.00;99.90;;;;;;6119034;23;20030;-90
2021/09/12 22:00:32;;;;;;;7.65;6.93;;;14.00;99.90;;;;;;6111372;23;20026;-90
2021/09/12 22:03:20;;;;;;;11.38;7.07;;;13.90;99.90;;;;;;6127341;23;20054;-88
2021/09/12 22:06:09;;;;;;;9.35;7.60;;;13.90;99.90;;;;;;6114362;23;20042;-90
2021/09/12 22:08:56;;;;;;;10.40;7.90;;;13.90;99.90;;;;;;6111607;23;20029;-91
2021/09/12 22:11:43;;;;;;;8.90;7.75;;;14.00;99.90;;;;;;6117701;23;20077;-91
2021/09/12 22:14:31;;;;;;;10.27;7.88;;;14.00;99.90;;;;;;6116374;23;20444;-90
2021/09/12 22:17:18;;;;;;;9.60;7.47;;;14.00;99.90;;;;;;6085303;23;20018;-90
2021/09/12 22:20:08;;;;;;;13.63;6.70;;;14.00;99.90;;;;;;6127269;23;20037;-91
2021/09/12 22:22:56;;;;;;;8.68;7.55;;;13.90;99.90;;;;;;6126719;23;20030;-89
2021/09/12 22:25:45;;;;;;;12.45;7.63;;;13.90;99.90;;;;;;6124476;23;20041;-90
2021/09/12 22:28:32;;;;;;;11.30;7.03;;;14.00;99.90;;;;;;6125378;23;20026;-88
2021/09/12 22:31:28;;;;;;;8.20;7.00;;;14.10;99.90;;;;;;6104531;23;20018;-90
2021/09/12 22:34:17;;;;;;;8.00;6.35;;;14.10;99.90;;;;;;6125539;23;20322;-91
2021/09/12 22:37:05;;;;;;;9.48;6.80;;;14.20;99.90;;;;;;6126176;23;20030;-93
2021/09/12 22:39:58;;;;;;;7.28;5.75;;;14.30;99.90;;;;;;6123323;23;20302;-91
2021/09/12 22:42:45;;;;;;;8.73;6.32;;;14.40;99.90;;;;;;6125822;23;20021;-91
2021/09/12 22:45:32;;;;;;;6.72;6.05;;;14.50;99.90;;;;;;6123997;23;20030;-90
2021/09/12 22:48:20;;;;;;;7.97;5.38;;;14.70;99.90;;;;;;6124985;23;20030;-90
2021/09/12 22:51:13;;;;;;;7.78;5.95;;;14.70;99.90;;;;;;6123735;23;20022;-89
2021/09/12 22:54:00;;;;;;;7.63;5.20;;;14.70;99.90;;;;;;6124430;23;20022;-89
2021/09/12 22:56:55;;;;;;;7.05;5.78;;;14.70;99.90;;;;;;6102998;23;20391;-90
2021/09/12 22:59:45;;;;;;;8.02;5.90;;;14.60;99.90;;;;;;6104169;23;20032;-91
2021/09/12 23:02:33;;;;;;;7.07;6.38;;;14.60;99.90;;;;;;6128738;23;20037;-89
2021/09/12 23:05:20;;;;;;;10.30;6.97;;;14.60;99.90;;;;;;6126782;23;20026;-89
2021/09/12 23:08:10;;;;;;;6.97;6.07;;;14.60;99.90;;;;;;6104337;23;20343;-91
2021/09/12 23:10:58;;;;;;;8.38;6.28;;;14.60;99.90;;;;;;6125485;23;20449;-91
2021/09/12 23:13:45;;;;;;;6.93;5.95;;;14.60;99.90;;;;;;6085896;23;20037;-90
2021/09/12 23:16:35;;;;;;;6.65;5.95;;;14.70;99.90;;;;;;6126928;23;20109;-89
2021/09/12 23:19:23;;;;;;;7.57;5.47;;;14.60;99.90;;;;;;6105500;23;20036;-91
2021/09/12 23:22:11;;;;;;;7.25;5.72;;;14.60;99.90;;;;;;6124251;23;20030;-90
2021/09/12 23:24:58;;;;;;;6.45;5.82;;;14.60;99.90;;;;;;6126381;23;20093;-91
2021/09/12 23:27:47;;;;;;;7.90;5.68;;;14.60;99.90;;;;;;6103848;23;20026;-90
2021/09/12 23:30:35;;;;;;;6.90;6.13;;;14.60;99.90;;;;;;6103916;23;20330;-90
2021/09/12 23:33:23;;;;;;;7.35;6.20;;;14.70;99.90;;;;;;6103475;23;20065;-90
2021/09/12 23:36:11;;;;;;;10.18;5.75;;;14.60;99.90;;;;;;6123322;23;20026;-89